Bismarck, ND (58501)

8:09 AM CST on February 14, 2016 (GMT -0600)
Pacific Avenue Bismarck | | Change Station
CLOSE
Current Station
Personal Weather Station
Location: Bismarck, ND
Elevation: 1722 ft
Nearby Weather Stations
Active Advisory: Winter Weather Advisory Active Notice: Record Report, Local Storm Report

Elev 1722 ft 46.83 °N, 100.75 °W | Updated 2 minutes ago

Overcast
Overcast
26.4 °F
Feels Like 26 °F
N
2.7
Wind Variable Wind from West

Today
High -- | Low -- °F
--% Chance of Precip.
Yesterday
High -- | Low -- °F
Precip. -- in
Pressure 29.83 in
Visibility 10.0 miles
Clouds Mostly Cloudy 1600 ft
Overcast 2200 ft
Windchill 26 °F
Dew Point 25 °F
Humidity 94%
Rainfall 0.00 in
Snow Depth Not available.
7:49 AM 6:05 PM
Waxing Crescent, 42% visible
METAR KBIS 141352Z 00000KT 10SM BKN016 OVC022 M02/M04 A2975 RMK AO2 SNE1256 SLP100 P0000 T10171039
Pressure 29.83 in
Visibility 10.0 miles
Clouds Mostly Cloudy 1600 ft
Overcast 2200 ft
Windchill 26 °F
Dew Point 25 °F
Humidity 94%
Rainfall 0.00 in
Snow Depth Not available.
7:49 AM 6:05 PM
Waxing Crescent, 42% visible
METAR KBIS 141352Z 00000KT 10SM BKN016 OVC022 M02/M04 A2975 RMK AO2 SNE1256 SLP100 P0000 T10171039

10-Day Weather Forecast

Almanac

Astronomy

Feb. 14, 2016 Rise Set
Actual Time
Civil Twilight
Nautical Twilight
Astronomical Twilight
Moon
Length of Visible Light
Length of Day
Tomorrow will be .
, % of the Moon is Illuminated

Today's Extremes

State Highs State Lows

Community

WunderPhotos

Upload Photos

1,892,797 photos uploaded!

WunderBlog® & News

Nearby

Air Quality

  Air Quality AQ Index Pollutant
Not available.

Snow Depth

Station Depth Elevation

Earthquake Activity

City Distance Mag. Time & Date
Minimum magnitude displayed is 2.5.

Coastal Water Temperatures

Place Temperature

Stations

Nearby Weather Stations

Station Location Temp. Windchill Dew Point Humidity Wind Precip. Elev Updated Type
                   

Watches & Warnings

Winter Weather Advisory
Issued: 5:33 AM MST Feb. 14, 2016 – National Weather Service

... Winter Weather Advisory remains in effect until noon CST
/11 am MST/ today...

* expect freezing drizzle to continue... diminishing around noon
CST.

* Additional ice accumulations of a glaze are expected.

* The ice will result in very slippery conditions on
sidewalks... roads and bridges.

Precautionary/preparedness actions...

A Winter Weather Advisory means that periods of freezing rain
will cause travel difficulties. Be prepared for slippery roads
and limited visibilities... and use caution while driving. The
latest Road conditions for the state you are calling from can be
obtained by calling 5 1 1.